Time;durP1;ratioP1;P1;durP2;ratioP2;P2;SDS_P1;SDS_P2;PMS_P1;PMS_P2;Temp;Humidity;BMP_temperature;BMP_pressure;BME280_temperature;BME280_humidity;BME280_pressure;Samples;Min_cycle;Max_cycle;Signal;HPM_P1;HPM_P2
2022/10/18 00:01:07;;;;;;;28.38;18.48;;;;;;;16.01;59.28;102579.88;7390709;19;20345;-59
2022/10/18 00:03:33;;;;;;;30.77;19.20;;;;;;;16.03;59.23;102585.06;7386835;19;20185;-59
2022/10/18 00:06:00;;;;;;;33.65;19.60;;;;;;;16.05;59.46;102591.06;7390878;19;20006;-59
2022/10/18 00:08:26;;;;;;;34.22;20.60;;;;;;;16.03;59.22;102596.06;7389437;19;20351;-59
2022/10/18 00:10:51;;;;;;;33.20;19.77;;;;;;;15.99;59.55;102589.66;7390124;19;20005;-59
2022/10/18 00:13:18;;;;;;;32.58;20.13;;;;;;;16.03;59.51;102587.81;7390817;19;20007;-59
2022/10/18 00:15:48;;;;;;;34.65;21.15;;;;;;;15.99;59.45;102589.66;7389672;19;20074;-59
2022/10/18 00:18:14;;;;;;;35.90;21.90;;;;;;;15.99;59.60;102587.69;7390718;19;20486;-59
2022/10/18 00:20:39;;;;;;;33.60;19.98;;;;;;;15.98;59.66;102596.28;7398374;19;20009;-59
2022/10/18 00:23:05;;;;;;;34.70;20.33;;;;;;;15.90;59.81;102601.53;7397633;19;20490;-59
2022/10/18 00:25:30;;;;;;;33.60;21.48;;;;;;;15.90;59.78;102596.03;7393857;19;20482;-59
2022/10/18 00:27:56;;;;;;;30.38;19.73;;;;;;;15.91;59.95;102597.63;7396339;19;20066;-59
2022/10/18 00:30:21;;;;;;;36.33;20.60;;;;;;;15.91;59.64;102602.31;7397061;19;19994;-59
2022/10/18 00:32:47;;;;;;;32.53;19.35;;;;;;;15.87;59.74;102602.19;7398013;19;20003;-59
2022/10/18 00:35:12;;;;;;;35.63;20.70;;;;;;;15.84;59.86;102600.09;7394273;19;20475;-59
2022/10/18 00:37:38;;;;;;;31.63;19.95;;;;;;;15.84;60.04;102593.78;7397904;19;19998;-59
2022/10/18 00:40:05;;;;;;;30.95;20.73;;;;;;;15.83;60.13;102600.44;7397230;19;20472;-59
2022/10/18 00:42:33;;;;;;;33.47;21.30;;;;;;;15.79;60.13;102600.28;7397128;19;19995;-59
2022/10/18 00:45:04;;;;;;;33.85;20.08;;;;;;;15.76;59.91;102597.41;7392889;19;20002;-59
2022/10/18 00:47:31;;;;;;;32.75;19.85;;;;;;;15.70;60.30;102596.81;7397719;19;19995;-59
2022/10/18 00:50:01;;;;;;;36.20;22.52;;;;;;;15.72;60.02;102600.81;7395505;19;20006;-59
2022/10/18 00:52:41;;;;;;;32.08;19.92;;;;;;;15.65;60.14;102606.06;7396300;19;20005;-59
2022/10/18 00:55:08;;;;;;;40.00;22.63;;;;;;;15.64;60.03;102606.38;7395081;19;20028;-59
2022/10/18 00:57:35;;;;;;;37.15;21.65;;;;;;;15.66;60.00;102606.84;7393169;19;20022;-59
2022/10/18 01:00:01;;;;;;;35.63;22.02;;;;;;;15.63;60.22;102602.84;7396681;19;20113;-59
2022/10/18 01:02:27;;;;;;;39.22;23.45;;;;;;;15.64;59.94;102614.66;7396801;19;20005;-59
2022/10/18 01:04:53;;;;;;;37.88;22.42;;;;;;;15.65;59.85;102611.56;7394801;19;20369;-59
2022/10/18 01:07:24;;;;;;;38.72;22.77;;;;;;;15.65;60.14;102616.28;7396564;19;20401;-59
2022/10/18 01:10:05;;;;;;;38.45;23.13;;;;;;;15.61;60.11;102613.31;7396546;19;20002;-59
2022/10/18 01:13:01;;;;;;;35.83;21.95;;;;;;;15.63;59.81;102621.28;7394554;19;20011;-59
2022/10/18 01:15:50;;;;;;;36.15;21.27;;;;;;;15.65;60.04;102616.28;7394111;19;20070;-59
2022/10/18 01:18:25;;;;;;;37.03;21.45;;;;;;;15.61;60.01;102623.53;7395489;19;20006;-59
2022/10/18 01:21:01;;;;;;;39.05;22.77;;;;;;;15.61;59.74;102620.78;7395557;19;20022;-60
2022/10/18 01:23:53;;;;;;;34.28;21.52;;;;;;;15.54;59.91;102622.09;7395158;19;20001;-60
2022/10/18 01:26:47;;;;;;;35.20;21.98;;;;;;;15.48;60.05;102620.69;7395953;19;19999;-60
2022/10/18 01:29:33;;;;;;;36.55;22.52;;;;;;;15.55;60.05;102607.22;7394238;19;20027;-60
2022/10/18 01:32:03;;;;;;;33.97;21.63;;;;;;;15.54;59.94;102611.09;7393267;19;19999;-60
2022/10/18 01:34:32;;;;;;;34.83;21.58;;;;;;;15.46;60.00;102614.69;7394348;19;20003;-59
2022/10/18 01:37:02;;;;;;;43.22;24.80;;;;;;;15.49;60.14;102607.72;7394481;19;19994;-59
2022/10/18 01:39:33;;;;;;;43.45;23.15;;;;;;;15.49;60.43;102614.03;7394653;19;19998;-59
2022/10/18 01:42:01;;;;;;;34.65;21.92;;;;;;;15.49;60.08;102614.03;7395515;19;19999;-59
2022/10/18 01:44:30;;;;;;;37.92;23.65;;;;;;;15.50;60.02;102612.09;7391812;19;20085;-59
2022/10/18 01:46:56;;;;;;;34.65;22.20;;;;;;;15.49;59.97;102618.72;7395609;19;20006;-59
2022/10/18 01:49:24;;;;;;;38.08;21.92;;;;;;;15.51;59.96;102617.28;7392357;19;19999;-59
2022/10/18 01:51:49;;;;;;;35.63;22.15;;;;;;;15.45;60.01;102606.78;7393433;19;20002;-60
2022/10/18 01:54:21;;;;;;;33.83;21.25;;;;;;;15.44;59.97;102611.47;7391452;19;20070;-59
2022/10/18 01:57:00;;;;;;;36.35;23.33;;;;;;;15.46;59.80;102614.69;7392130;19;20031;-59
2022/10/18 01:59:41;;;;;;;34.72;21.52;;;;;;;15.39;60.21;102614.41;7392096;19;20002;-59
2022/10/18 02:02:28;;;;;;;34.80;21.52;;;;;;;15.29;60.25;102609.28;7394527;19;20022;-59
2022/10/18 02:05:13;;;;;;;31.80;20.70;;;;;;;15.33;60.28;102604.72;7392441;19;20366;-59
2022/10/18 02:07:42;;;;;;;;;;;;;;;15.26;60.40;102599.72;7393218;19;20014;-59
2022/10/18 02:10:14;;;;;;;40.33;23.83;;;;;;;15.30;60.41;102597.94;7392971;19;19922;-60
2022/10/18 02:12:43;;;;;;;38.85;24.48;;;;;;;15.35;60.21;102596.97;7394195;19;20003;-59
2022/10/18 02:15:13;;;;;;;36.80;22.08;;;;;;;15.39;60.08;102597.91;7392522;19;20006;-59
2022/10/18 02:17:39;;;;;;;37.05;23.02;;;;;;;15.37;60.00;102583.66;7394209;19;20023;-59
2022/10/18 02:20:08;;;;;;;43.17;25.73;;;;;;;15.37;59.88;102589.16;7392556;19;20006;-59
2022/10/18 02:22:36;;;;;;;42.42;24.92;;;;;;;15.40;60.14;102590.44;7393474;19;20003;-59
2022/10/18 02:25:09;;;;;;;37.47;23.00;;;;;;;15.34;59.89;102587.06;7391414;19;20396;-59
2022/10/18 02:27:36;;;;;;;36.53;22.05;;;;;;;15.33;59.89;102590.97;7393271;19;20023;-59
2022/10/18 02:30:02;;;;;;;30.48;19.75;;;;;;;15.24;59.98;102584.69;7393178;19;20003;-60
2022/10/18 02:32:36;;;;;;;29.40;19.27;;;;;;;15.18;59.75;102579.38;7393845;19;19998;-59
2022/10/18 02:35:13;;;;;;;31.48;19.48;;;;;;;15.07;59.97;102580.88;7392294;19;20013;-59
2022/10/18 02:37:40;;;;;;;33.88;21.48;;;;;;;15.03;60.16;102577.19;7393324;19;20007;-59
2022/10/18 02:40:09;;;;;;;39.40;23.65;;;;;;;15.06;60.14;102573.75;7392386;19;20436;-59
2022/10/18 02:42:43;;;;;;;34.35;22.48;;;;;;;15.15;60.01;102574.53;7391675;19;20008;-59
2022/10/18 02:45:09;;;;;;;40.22;22.60;;;;;;;15.18;60.05;102571.13;7391545;19;20464;-59
2022/10/18 02:47:35;;;;;;;35.53;22.67;;;;;;;15.18;59.82;102579.38;7393059;19;20219;-60
2022/10/18 02:50:00;;;;;;;36.90;21.90;;;;;;;15.16;60.29;102572.59;7390120;19;20528;-60
2022/10/18 02:52:26;;;;;;;37.85;22.88;;;;;;;15.19;60.16;102571.94;7393225;19;19998;-60
2022/10/18 02:54:52;;;;;;;38.35;24.10;;;;;;;15.14;60.50;102575.66;7390871;19;20491;-60
2022/10/18 02:57:17;;;;;;;40.58;24.13;;;;;;;15.23;60.17;102574.81;7390532;19;20006;-60
2022/10/18 02:59:43;;;;;;;40.55;24.58;;;;;;;15.27;59.99;102578.53;7391377;19;20002;-60
2022/10/18 03:02:14;;;;;;;41.15;23.13;;;;;;;15.27;59.98;102571.09;7392677;19;20444;-60
2022/10/18 03:04:40;;;;;;;38.63;23.83;;;;;;;15.29;60.03;102573.50;7390130;19;20015;-60
2022/10/18 03:07:06;;;;;;;41.97;25.52;;;;;;;15.30;59.75;102578.69;7390749;19;20095;-59
2022/10/18 03:09:31;;;;;;;43.33;25.92;;;;;;;15.28;59.89;102574.63;7390741;19;20027;-59
2022/10/18 03:11:58;;;;;;;43.13;25.30;;;;;;;15.29;60.09;102571.56;7390989;19;20003;-59
2022/10/18 03:14:23;;;;;;;39.33;23.70;;;;;;;15.35;59.61;102566.69;7391159;19;20007;-60
2022/10/18 03:16:49;;;;;;;48.90;23.95;;;;;;;15.26;60.08;102574.16;7391083;19;20023;-60
2022/10/18 03:19:14;;;;;;;42.85;24.50;;;;;;;15.23;60.24;102578.41;7391592;19;20328;-59
2022/10/18 03:21:40;;;;;;;42.42;23.52;;;;;;;15.22;60.35;102578.72;7391680;19;20348;-59
2022/10/18 03:24:06;;;;;;;44.92;24.77;;;;;;;15.21;60.08;102586.16;7389333;19;20006;-59
2022/10/18 03:26:31;;;;;;;86.60;26.25;;;;;;;15.26;60.13;102579.66;7391541;19;20447;-59
2022/10/18 03:28:57;;;;;;;58.63;23.75;;;;;;;15.24;60.22;102584.69;7390171;19;20010;-60
2022/10/18 03:31:22;;;;;;;45.40;24.52;;;;;;;15.17;60.17;102580.50;7391098;19;20003;-59
2022/10/18 03:33:48;;;;;;;67.20;26.67;;;;;;;15.20;60.29;102586.47;7391269;19;20006;-59
2022/10/18 03:36:14;;;;;;;47.45;25.10;;;;;;;15.16;60.36;102589.09;7388464;19;20471;-59
2022/10/18 03:38:40;;;;;;;49.70;26.17;;;;;;;15.22;60.50;102586.97;7388609;19;20078;-59
2022/10/18 03:41:05;;;;;;;112.88;29.17;;;;;;;15.20;60.43;102586.47;7389421;19;20011;-60
2022/10/18 03:43:31;;;;;;;50.85;26.75;;;;;;;15.17;60.42;102585.22;7391878;19;20755;-59
2022/10/18 03:45:56;;;;;;;64.20;25.83;;;;;;;15.18;60.34;102595.09;7390084;19;20320;-59
2022/10/18 03:48:22;;;;;;;64.07;25.55;;;;;;;15.11;60.41;102581.03;7390886;19;20002;-59
2022/10/18 03:50:48;;;;;;;49.00;24.08;;;;;;;15.15;60.52;102582.78;7388994;19;20010;-59
2022/10/18 03:53:13;;;;;;;50.75;24.52;;;;;;;15.16;60.30;102575.34;7392278;19;20319;-60
2022/10/18 03:55:39;;;;;;;51.58;25.52;;;;;;;15.16;60.33;102578.09;7397076;19;20097;-60
2022/10/18 03:58:05;;;;;;;48.38;24.65;;;;;;;15.12;60.52;102577.94;7392944;19;20006;-60
2022/10/18 04:00:31;;;;;;;45.15;24.02;;;;;;;15.14;60.32;102577.63;7398097;19;20007;-60
2022/10/18 04:02:56;;;;;;;44.92;23.85;;;;;;;15.16;60.19;102573.41;7398243;19;20005;-60
2022/10/18 04:05:23;;;;;;;100.57;26.65;;;;;;;15.06;60.27;102579.25;7395576;19;20011;-60
2022/10/18 04:07:49;;;;;;;62.20;25.20;;;;;;;15.03;60.73;102577.19;7396413;19;20454;-60
2022/10/18 04:10:14;;;;;;;61.05;24.77;;;;;;;15.07;60.66;102574.59;7395911;19;20003;-60
2022/10/18 04:12:42;;;;;;;72.43;23.77;;;;;;;15.07;60.49;102571.84;7398413;19;20458;-60
2022/10/18 04:15:12;;;;;;;50.10;24.80;;;;;;;14.99;60.79;102570.72;7392951;19;20015;-60
2022/10/18 04:17:37;;;;;;;70.43;27.48;;;;;;;15.08;60.55;102571.50;7391777;19;20018;-59
2022/10/18 04:20:04;;;;;;;46.55;23.50;;;;;;;15.12;60.44;102577.16;7394470;19;20293;-58
2022/10/18 04:22:29;;;;;;;48.58;23.40;;;;;;;15.15;60.36;102582.78;7397269;19;19995;-60
2022/10/18 04:24:55;;;;;;;52.22;23.65;;;;;;;15.12;60.29;102582.66;7397280;19;20412;-59
2022/10/18 04:27:21;;;;;;;49.35;24.67;;;;;;;15.12;60.15;102572.44;7394264;19;20018;-59
2022/10/18 04:29:47;;;;;;;39.38;21.33;;;;;;;15.07;60.15;102571.84;7397073;19;20006;-59
2022/10/18 04:32:12;;;;;;;40.83;23.35;;;;;;;15.10;60.31;102569.22;7397442;19;20405;-59
2022/10/18 04:34:38;;;;;;;80.97;25.48;;;;;;;15.13;60.17;102565.00;7395629;19;19994;-58
2022/10/18 04:37:03;;;;;;;46.95;24.00;;;;;;;15.10;60.13;102569.22;7395782;19;20315;-59
2022/10/18 04:39:29;;;;;;;54.60;22.85;;;;;;;15.09;59.96;102573.09;7396903;19;20335;-59
2022/10/18 04:41:55;;;;;;;41.15;22.48;;;;;;;15.02;60.20;102572.00;7394870;19;20435;-58
2022/10/18 04:44:21;;;;;;;46.25;23.08;;;;;;;15.05;60.38;102563.91;7395491;19;20339;-58
2022/10/18 04:46:47;;;;;;;61.30;24.95;;;;;;;15.09;60.04;102566.81;7394312;19;20001;-59
2022/10/18 04:49:13;;;;;;;45.83;24.20;;;;;;;15.02;60.41;102572.00;7394645;19;20447;-59
2022/10/18 04:51:39;;;;;;;55.25;23.90;;;;;;;15.03;60.48;102568.94;7395959;19;19990;-58
2022/10/18 04:54:04;;;;;;;65.85;23.67;;;;;;;14.94;60.63;102570.91;7396719;19;20003;-58
2022/10/18 04:56:30;;;;;;;68.40;22.60;;;;;;;14.93;60.38;102575.59;7393696;19;20007;-58
2022/10/18 04:58:57;;;;;;;63.13;23.55;;;;;;;14.95;60.60;102578.81;7395647;19;19995;-58
2022/10/18 05:01:22;;;;;;;72.07;24.00;;;;;;;14.95;60.43;102567.03;7396273;19;20058;-58
2022/10/18 05:03:52;;;;;;;69.22;22.33;;;;;;;14.99;60.50;102573.47;7396573;19;20016;-57
2022/10/18 05:06:18;;;;;;;58.83;22.75;;;;;;;14.96;60.42;102574.13;7392959;19;19999;-58
2022/10/18 05:08:44;;;;;;;64.97;24.38;;;;;;;14.95;60.43;102569.78;7395493;19;20080;-58
2022/10/18 05:11:09;;;;;;;47.42;22.73;;;;;;;15.02;60.56;102575.56;7395893;19;20005;-58
2022/10/18 05:13:37;;;;;;;35.60;19.77;;;;;;;15.05;60.33;102580.41;7396051;19;19990;-58
2022/10/18 05:16:03;;;;;;;43.67;20.55;;;;;;;15.06;60.01;102584.75;7394995;19;19998;-58
2022/10/18 05:18:29;;;;;;;50.38;21.75;;;;;;;15.05;60.35;102574.91;7393065;19;20041;-58
2022/10/18 05:20:54;;;;;;;41.83;20.95;;;;;;;15.00;60.41;102569.59;7395405;19;20439;-58
2022/10/18 05:23:20;;;;;;;54.08;22.02;;;;;;;14.96;60.32;102568.63;7394260;19;19999;-58
2022/10/18 05:25:46;;;;;;;41.67;20.75;;;;;;;14.98;60.31;102569.13;7393658;19;20288;-57
2022/10/18 05:28:11;;;;;;;52.55;21.17;;;;;;;15.03;60.13;102573.59;7392691;19;20009;-59
2022/10/18 05:30:38;;;;;;;47.63;20.50;;;;;;;14.99;60.01;102582.50;7394119;19;19999;-59
2022/10/18 05:33:04;;;;;;;45.05;19.65;;;;;;;14.96;60.18;102585.13;7394984;19;20018;-58
2022/10/18 05:35:30;;;;;;;44.97;19.55;;;;;;;14.94;60.32;102579.94;7393210;19;20026;-58
2022/10/18 05:37:56;;;;;;;45.00;20.33;;;;;;;14.94;60.31;102598.38;7392190;19;20019;-57
2022/10/18 05:40:21;;;;;;;62.47;22.42;;;;;;;14.91;60.10;102594.38;7395203;19;20007;-57
2022/10/18 05:42:50;;;;;;;50.67;20.58;;;;;;;14.93;60.20;102583.84;7393731;19;20005;-57
2022/10/18 05:45:16;;;;;;;47.63;20.58;;;;;;;14.96;60.27;102596.13;7394623;19;20013;-58
2022/10/18 05:47:42;;;;;;;39.15;20.52;;;;;;;14.94;60.26;102590.13;7393220;19;19999;-58
2022/10/18 05:50:07;;;;;;;52.15;20.80;;;;;;;14.95;60.21;102597.28;7393953;19;20014;-58
2022/10/18 05:52:33;;;;;;;40.28;19.95;;;;;;;14.93;60.23;102585.75;7392300;19;20007;-57
2022/10/18 05:54:58;;;;;;;40.78;18.90;;;;;;;14.94;60.29;102598.38;7392347;19;20017;-58
2022/10/18 05:57:24;;;;;;;49.05;19.65;;;;;;;14.97;60.24;102597.75;7392937;19;20009;-57
2022/10/18 05:59:50;;;;;;;39.80;18.15;;;;;;;14.97;59.74;102581.25;7393787;19;19994;-57
2022/10/18 06:02:15;;;;;;;31.67;16.95;;;;;;;14.90;60.05;102592.75;7392353;19;20462;-57
2022/10/18 06:04:41;;;;;;;34.95;17.60;;;;;;;14.92;59.95;102592.41;7393687;19;20122;-57
2022/10/18 06:07:10;;;;;;;39.63;17.48;;;;;;;14.92;59.85;102597.91;7392567;19;19998;-57
2022/10/18 06:09:36;;;;;;;44.30;19.10;;;;;;;14.93;59.92;102603.09;7393373;19;20006;-59
2022/10/18 06:12:03;;;;;;;44.40;18.88;;;;;;;14.96;60.00;102612.59;7393995;19;20095;-58
2022/10/18 06:14:29;;;;;;;36.35;17.70;;;;;;;15.01;59.91;102598.69;7394907;19;20007;-58
2022/10/18 06:16:55;;;;;;;43.67;17.40;;;;;;;14.96;59.79;102604.34;7390125;19;20379;-58
2022/10/18 06:19:22;;;;;;;47.72;19.30;;;;;;;14.95;59.72;102606.31;7393465;19;20489;-59
2022/10/18 06:21:48;;;;;;;51.88;19.30;;;;;;;14.94;59.87;102603.88;7391589;19;20003;-59
2022/10/18 06:24:13;;;;;;;71.80;20.75;;;;;;;14.95;59.89;102608.25;7393829;19;20462;-58
2022/10/18 06:26:39;;;;;;;47.40;19.70;;;;;;;14.97;59.80;102615.03;7392559;19;20007;-59
2022/10/18 06:29:05;;;;;;;33.67;17.30;;;;;;;15.03;59.66;102628.59;7393053;19;19991;-59
2022/10/18 06:31:30;;;;;;;51.55;19.08;;;;;;;14.98;59.66;102632.34;7391907;19;20392;-58
2022/10/18 06:34:00;;;;;;;52.28;19.05;;;;;;;14.93;59.99;102627.00;7390884;19;20022;-58
2022/10/18 06:36:26;;;;;;;31.85;16.65;;;;;;;14.91;59.99;102618.28;7392095;19;20093;-58
2022/10/18 06:38:53;;;;;;;49.75;20.38;;;;;;;14.98;59.70;102615.88;7392987;19;20424;-58
2022/10/18 06:41:19;;;;;;;42.70;18.10;;;;;;;14.96;59.53;102615.34;7393365;19;20047;-57
2022/10/18 06:43:55;;;;;;;41.28;20.13;;;;;;;14.95;60.02;102627.50;7393242;19;20013;-59
2022/10/18 06:46:21;;;;;;;74.95;21.58;;;;;;;14.98;59.82;102644.16;7392740;19;19998;-59
2022/10/18 06:48:46;;;;;;;45.95;20.67;;;;;;;14.96;59.78;102640.94;7391465;19;20003;-59
2022/10/18 06:51:12;;;;;;;51.03;22.13;;;;;;;14.92;59.83;102639.94;7393374;19;19995;-58
2022/10/18 06:53:38;;;;;;;63.40;26.23;;;;;;;14.96;59.68;102634.59;7392444;19;20466;-58
2022/10/18 06:56:12;;;;;;;52.88;23.45;;;;;;;14.97;59.71;102634.28;7391824;19;19990;-59
2022/10/18 06:58:38;;;;;;;66.38;23.33;;;;;;;14.91;59.67;102643.03;7392121;19;19995;-59
2022/10/18 07:01:12;;;;;;;48.22;20.73;;;;;;;14.97;59.55;102645.28;7392051;19;19990;-59
2022/10/18 07:03:38;;;;;;;54.78;21.95;;;;;;;14.97;59.56;102645.28;7392678;19;20002;-59
2022/10/18 07:06:07;;;;;;;65.57;23.17;;;;;;;14.93;59.42;102647.09;7392311;19;20510;-59
2022/10/18 07:08:39;;;;;;;48.75;21.25;;;;;;;14.84;59.44;102650.97;7389823;19;20018;-59
2022/10/18 07:11:06;;;;;;;77.07;22.85;;;;;;;14.85;59.62;102658.09;7390885;19;20166;-59
2022/10/18 07:13:33;;;;;;;57.67;22.27;;;;;;;14.90;59.80;102663.44;7392013;19;19995;-59
2022/10/18 07:16:09;;;;;;;69.60;22.33;;;;;;;14.89;59.34;102676.34;7391248;19;19999;-59
2022/10/18 07:18:36;;;;;;;51.30;22.45;;;;;;;14.87;59.61;102686.06;7389348;19;20018;-59
2022/10/18 07:21:07;;;;;;;48.55;21.90;;;;;;;14.96;59.67;102678.59;7391906;19;20471;-59
2022/10/18 07:23:33;;;;;;;57.45;25.92;;;;;;;14.97;59.28;102669.22;7389774;19;20010;-58
2022/10/18 07:26:00;;;;;;;47.25;22.20;;;;;;;15.00;59.19;102679.56;7390825;19;20003;-58
2022/10/18 07:28:26;;;;;;;48.47;20.58;;;;;;;15.04;59.01;102680.53;7387637;19;19998;-58
2022/10/18 07:30:52;;;;;;;41.17;18.85;;;;;;;14.99;59.00;102684.25;7391694;19;20006;-58
2022/10/18 07:33:19;;;;;;;47.80;20.70;;;;;;;14.95;58.66;102683.28;7391418;19;20005;-59
2022/10/18 07:35:51;;;;;;;43.60;18.52;;;;;;;14.93;58.36;102684.75;7390975;19;20007;-59
2022/10/18 07:38:17;;;;;;;39.92;18.70;;;;;;;14.91;58.69;102684.28;7388894;19;20017;-59
2022/10/18 07:40:42;;;;;;;45.00;19.38;;;;;;;14.93;58.52;102695.75;7389664;19;19999;-59
2022/10/18 07:43:08;;;;;;;43.05;21.13;;;;;;;14.90;58.40;102686.22;7391285;19;19999;-57
2022/10/18 07:45:36;;;;;;;56.97;24.40;;;;;;;14.90;58.17;102694.47;7389718;19;20351;-58
2022/10/18 07:48:02;;;;;;;45.30;21.15;;;;;;;14.85;58.25;102693.84;7387235;19;20006;-58
2022/10/18 07:50:27;;;;;;;53.45;24.05;;;;;;;14.78;58.55;102695.13;7389766;19;20481;-58
2022/10/18 07:52:53;;;;;;;60.03;27.88;;;;;;;14.73;58.38;102698.00;7390250;19;20002;-59
2022/10/18 07:55:18;;;;;;;59.13;27.17;;;;;;;14.81;58.40;102704.66;7390140;19;20343;-59
2022/10/18 07:57:44;;;;;;;59.13;27.23;;;;;;;14.80;57.99;102714.84;7388552;19;20046;-59
2022/10/18 08:00:10;;;;;;;66.00;32.35;;;;;;;14.61;58.50;102717.06;7388168;19;20477;-58
2022/10/18 08:02:36;;;;;;;71.22;32.30;;;;;;;14.65;58.47;102717.25;7390459;19;20054;-59
2022/10/18 08:05:01;;;;;;;78.68;33.90;;;;;;;14.75;57.88;102712.25;7390213;19;19995;-59
2022/10/18 08:07:27;;;;;;;59.72;31.08;;;;;;;14.74;57.97;102705.09;7389685;19;20007;-59
2022/10/18 08:09:52;;;;;;;59.53;30.50;;;;;;;14.77;57.92;102717.44;7389339;19;20001;-59
2022/10/18 08:12:18;;;;;;;59.38;32.55;;;;;;;14.75;58.04;102709.50;7390934;19;20332;-59
2022/10/18 08:14:43;;;;;;;60.30;31.33;;;;;;;14.79;57.79;102701.41;7389793;19;19999;-59
2022/10/18 08:17:09;;;;;;;59.20;30.60;;;;;;;14.83;57.87;102701.56;7389684;19;20018;-59
2022/10/18 08:19:34;;;;;;;57.92;30.38;;;;;;;14.78;57.70;102695.13;7388581;19;20006;-58
2022/10/18 08:22:00;;;;;;;57.38;29.15;;;;;;;14.79;57.84;102702.22;7388296;19;20007;-58
2022/10/18 08:24:25;;;;;;;43.70;21.98;;;;;;;14.94;57.23;102689.13;7387863;19;20022;-58
2022/10/18 08:26:51;;;;;;;33.47;16.90;;;;;;;14.96;57.22;102695.09;7389745;19;20010;-58
2022/10/18 08:29:17;;;;;;;25.75;13.35;;;;;;;14.97;57.13;102704.97;7388951;19;20002;-58
2022/10/18 08:31:42;;;;;;;27.13;12.65;;;;;;;15.08;57.11;102709.00;7390794;19;20484;-59
2022/10/18 08:34:08;;;;;;;23.13;12.15;;;;;;;15.12;56.73;102707.22;7388885;19;20474;-59
2022/10/18 08:36:33;;;;;;;24.95;12.32;;;;;;;15.16;56.53;102708.19;7386126;19;20442;-59
2022/10/18 08:38:59;;;;;;;23.25;12.70;;;;;;;15.11;56.44;102713.03;7388231;19;20002;-59
2022/10/18 08:41:36;;;;;;;19.73;11.27;;;;;;;15.17;56.52;102704.28;7397147;19;20462;-59
2022/10/18 08:44:12;;;;;;;26.27;13.00;;;;;;;15.25;56.50;102697.16;7395028;19;20002;-59
2022/10/18 08:46:43;;;;;;;23.70;12.43;;;;;;;15.27;56.52;102696.81;7396331;19;20003;-59
2022/10/18 08:49:31;;;;;;;25.48;12.43;;;;;;;15.32;56.95;102704.91;7396563;19;19998;-59
2022/10/18 08:51:57;;;;;;;25.58;11.88;;;;;;;15.43;56.72;102697.91;7394092;19;20022;-59
2022/10/18 08:55:04;;;;;;;24.98;13.05;;;;;;;15.49;56.33;102693.84;7396716;19;19995;-58
2022/10/18 08:57:30;;;;;;;25.20;12.63;;;;;;;15.43;56.58;102699.84;7390267;19;20021;-58
2022/10/18 08:59:56;;;;;;;30.00;13.50;;;;;;;15.36;56.74;102698.44;7391583;19;20006;-57
2022/10/18 09:02:34;;;;;;;23.77;12.48;;;;;;;15.34;56.62;102688.88;7392415;19;20042;-59
2022/10/18 09:05:27;;;;;;;33.28;13.55;;;;;;;15.23;56.80;102699.44;7396358;19;20003;-60
2022/10/18 09:08:10;;;;;;;35.20;14.30;;;;;;;15.46;56.67;102708.25;7392399;19;20002;-59
2022/10/18 09:10:59;;;;;;;30.60;13.67;;;;;;;15.52;56.37;102700.63;7395667;19;20003;-59
2022/10/18 09:13:55;;;;;;;26.00;12.73;;;;;;;15.46;56.60;102697.22;7393172;19;20304;-59
2022/10/18 09:16:33;;;;;;;25.40;11.80;;;;;;;15.44;56.39;102699.50;7393246;19;20007;-60
2022/10/18 09:19:16;;;;;;;24.40;12.20;;;;;;;15.44;56.47;102707.78;7390753;19;20053;-58
2022/10/18 09:22:00;;;;;;;27.30;12.60;;;;;;;15.59;56.17;102694.63;7395132;19;20518;-60
2022/10/18 09:24:39;;;;;;;27.17;13.25;;;;;;;15.65;56.06;102705.16;7394993;19;20095;-60
2022/10/18 09:27:14;;;;;;;27.33;13.10;;;;;;;15.58;56.08;102712.25;7393640;19;20391;-58
2022/10/18 09:29:46;;;;;;;28.35;12.15;;;;;;;15.64;56.17;102692.50;7393296;19;20472;-58
2022/10/18 09:32:49;;;;;;;34.03;13.38;;;;;;;15.71;56.05;102686.50;7395071;19;20002;-58
2022/10/18 09:35:27;;;;;;;23.55;12.85;;;;;;;15.68;56.10;102692.66;7394917;19;19998;-58
2022/10/18 09:38:01;;;;;;;29.85;13.82;;;;;;;15.72;55.87;102701.88;7392471;19;20002;-58
2022/10/18 09:40:31;;;;;;;32.35;14.32;;;;;;;15.64;56.19;102702.72;7395538;19;19998;-58
2022/10/18 09:43:01;;;;;;;27.23;13.27;;;;;;;15.65;56.11;102704.34;7394234;19;20006;-59
2022/10/18 09:45:47;;;;;;;26.00;12.45;;;;;;;15.70;55.64;102693.16;7394488;19;20022;-58
2022/10/18 09:48:21;;;;;;;25.65;13.00;;;;;;;15.73;55.60;102692.47;7391243;19;19994;-58
2022/10/18 09:51:20;;;;;;;28.50;12.93;;;;;;;15.68;55.17;102693.47;7393751;19;20407;-59
2022/10/18 09:54:13;;;;;;;25.00;12.15;;;;;;;15.68;55.85;102703.66;7391697;19;20493;-58
2022/10/18 09:56:49;;;;;;;22.02;10.80;;;;;;;15.83;55.25;102702.31;7392172;19;19994;-58
2022/10/18 09:59:30;;;;;;;22.25;10.55;;;;;;;15.87;54.73;102706.81;7391630;19;19999;-58
2022/10/18 10:01:55;;;;;;;23.67;10.63;;;;;;;15.87;54.53;102712.31;7394296;19;20004;-58
2022/10/18 10:04:21;;;;;;;21.85;11.18;;;;;;;15.96;54.61;102714.22;7393800;19;20066;-59
2022/10/18 10:06:55;;;;;;;22.55;10.30;;;;;;;15.99;54.35;102724.59;7393865;19;20376;-58
2022/10/18 10:09:26;;;;;;;26.02;9.18;;;;;;;16.01;54.35;102720.34;7393324;19;20010;-58
2022/10/18 10:11:52;;;;;;;21.65;8.13;;;;;;;16.10;53.99;102718.38;7394113;19;20050;-57
2022/10/18 10:14:26;;;;;;;23.20;9.07;;;;;;;16.21;53.65;102731.75;7392397;19;19995;-58
2022/10/18 10:16:55;;;;;;;20.50;8.38;;;;;;;16.31;53.32;102730.56;7389693;19;20034;-58
2022/10/18 10:19:31;;;;;;;20.40;8.63;;;;;;;16.29;53.47;102728.13;7390451;19;20078;-58
2022/10/18 10:22:14;;;;;;;19.35;8.63;;;;;;;16.42;52.73;102729.03;7393335;19;20010;-58
2022/10/18 10:24:43;;;;;;;22.30;10.10;;;;;;;16.51;53.05;102729.00;7392188;19;20002;-58
2022/10/18 10:27:19;;;;;;;23.63;10.35;;;;;;;16.42;53.13;102726.28;7391604;19;19995;-58
2022/10/18 10:29:45;;;;;;;19.30;9.73;;;;;;;16.18;53.67;102735.16;7392555;19;20013;-57
2022/10/18 10:32:16;;;;;;;26.20;10.40;;;;;;;16.12;53.98;102736.50;7392822;19;20003;-58
2022/10/18 10:34:41;;;;;;;19.92;10.52;;;;;;;16.08;53.75;102739.94;7393112;19;20061;-57
2022/10/18 10:37:25;;;;;;;21.30;10.95;;;;;;;16.08;53.33;102750.94;7390240;19;20003;-58
2022/10/18 10:40:12;;;;;;;21.20;10.55;;;;;;;15.99;53.23;102739.16;7392436;19;19998;-57
2022/10/18 10:42:49;;;;;;;18.42;10.10;;;;;;;15.99;53.23;102746.63;7390764;19;19995;-58
2022/10/18 10:45:15;;;;;;;19.75;9.93;;;;;;;15.94;53.23;102755.06;7392722;19;20079;-57
2022/10/18 10:47:40;;;;;;;41.53;25.05;;;;;;;15.79;53.38;102739.91;7390787;19;19995;-58
2022/10/18 10:50:11;;;;;;;32.15;16.80;;;;;;;15.98;52.61;102742.25;7391702;19;20011;-58
2022/10/18 10:52:38;;;;;;;25.65;13.68;;;;;;;15.95;52.40;102740.97;7392332;19;20018;-59
2022/10/18 10:55:14;;;;;;;25.85;14.07;;;;;;;16.08;52.19;102750.13;7391460;19;20526;-57
2022/10/18 10:57:43;;;;;;;23.02;11.55;;;;;;;16.00;51.98;102742.72;7390665;19;20044;-57
2022/10/18 11:00:35;;;;;;;32.20;19.25;;;;;;;16.01;52.20;102741.56;7391913;19;19998;-53
2022/10/18 11:03:19;;;;;;;27.88;14.30;;;;;;;16.14;52.04;102736.97;7393838;19;19999;-54
2022/10/18 11:05:48;;;;;;;24.42;12.90;;;;;;;16.06;52.46;102735.88;7392505;19;20082;-54
2022/10/18 11:08:26;;;;;;;22.05;10.20;;;;;;;16.05;51.66;102743.34;7387818;19;19994;-54
2022/10/18 11:11:08;;;;;;;19.05;7.75;;;;;;;16.00;51.80;102756.47;7392549;19;20367;-53
2022/10/18 11:13:47;;;;;;;20.25;9.63;;;;;;;16.09;51.28;102752.53;7391705;19;20006;-53
2022/10/18 11:16:28;;;;;;;20.63;10.02;;;;;;;16.19;51.49;102758.81;7390939;19;20011;-54
2022/10/18 11:18:56;;;;;;;19.90;8.88;;;;;;;16.41;50.93;102760.47;7387371;19;20070;-53
2022/10/18 11:21:26;;;;;;;16.25;6.80;;;;;;;16.32;50.78;102756.94;7391006;19;20013;-52